Time;durP1;ratioP1;P1;durP2;ratioP2;P2;SDS_P1;SDS_P2;PMS_P1;PMS_P2;Temp;Humidity;BMP_temperature;BMP_pressure;BME280_temperature;BME280_humidity;BME280_pressure;Samples;Min_cycle;Max_cycle;Signal;HPM_P1;HPM_P2
2021/01/03 00:01:13;;;;;;;58.33;32.57;;;5.70;92.30;;;;;;5100320;28;20439;-79
2021/01/03 00:03:39;;;;;;;51.83;29.00;;;5.70;92.30;;;;;;5100015;28;20516;-79
2021/01/03 00:06:07;;;;;;;51.67;29.00;;;5.70;92.30;;;;;;5099893;28;20443;-79
2021/01/03 00:08:33;;;;;;;54.30;28.43;;;5.70;92.40;;;;;;5099316;28;20486;-79
2021/01/03 00:10:59;;;;;;;55.37;30.87;;;5.70;92.50;;;;;;5100030;28;20497;-79
2021/01/03 00:13:26;;;;;;;53.07;28.40;;;5.70;92.60;;;;;;5100282;28;20424;-79
2021/01/03 00:15:52;;;;;;;54.83;30.30;;;5.70;92.60;;;;;;5099375;28;20550;-79
2021/01/03 00:18:19;;;;;;;53.97;30.67;;;5.70;92.50;;;;;;5099223;28;20995;-79
2021/01/03 00:20:45;;;;;;;47.57;27.57;;;5.70;92.40;;;;;;5100007;28;20440;-78
2021/01/03 00:23:11;;;;;;;55.87;29.57;;;5.70;92.50;;;;;;5099498;28;20934;-79
2021/01/03 00:25:37;;;;;;;67.27;31.50;;;5.70;92.50;;;;;;5099437;28;20447;-79
2021/01/03 00:28:04;;;;;;;64.90;30.47;;;5.70;92.60;;;;;;5099436;28;20460;-79
2021/01/03 00:30:30;;;;;;;51.30;28.00;;;5.70;92.60;;;;;;5099681;28;20444;-79
2021/01/03 00:32:57;;;;;;;61.50;29.07;;;5.70;92.60;;;;;;5098930;28;20443;-79
2021/01/03 00:35:29;;;;;;;53.67;30.23;;;5.70;92.50;;;;;;5098779;28;20464;-79
2021/01/03 00:38:04;;;;;;;59.63;29.03;;;5.70;92.50;;;;;;5099411;28;20472;-79
2021/01/03 00:40:31;;;;;;;54.77;29.47;;;5.70;92.50;;;;;;5098850;28;20434;-79
2021/01/03 00:42:58;;;;;;;49.40;27.67;;;5.70;92.60;;;;;;5098419;28;20455;-79
2021/01/03 00:45:24;;;;;;;51.97;26.27;;;5.70;92.70;;;;;;5099317;28;20797;-79
2021/01/03 00:47:51;;;;;;;56.43;28.57;;;5.80;92.70;;;;;;5098910;28;20464;-79
2021/01/03 00:50:18;;;;;;;52.73;28.23;;;5.70;92.70;;;;;;5098766;28;20518;-79
2021/01/03 00:52:45;;;;;;;55.20;27.30;;;5.70;92.70;;;;;;5099611;28;20443;-79
2021/01/03 00:55:13;;;;;;;56.80;29.27;;;5.80;92.70;;;;;;5098262;28;20503;-79
2021/01/03 00:57:39;;;;;;;53.77;29.07;;;5.80;92.60;;;;;;5098638;28;20537;-79
2021/01/03 01:00:10;;;;;;;57.40;30.20;;;5.80;92.50;;;;;;5098700;28;20933;-78
2021/01/03 01:02:36;;;;;;;58.80;30.27;;;5.80;92.50;;;;;;5098555;28;20828;-79
2021/01/03 01:05:03;;;;;;;50.33;28.50;;;5.80;92.50;;;;;;5098170;28;20451;-79
2021/01/03 01:07:29;;;;;;;54.50;29.97;;;5.70;92.50;;;;;;5098076;28;20444;-79
2021/01/03 01:09:56;;;;;;;50.43;28.97;;;5.80;92.50;;;;;;5097694;28;20466;-79
2021/01/03 01:12:22;;;;;;;52.53;28.23;;;5.70;92.50;;;;;;5098524;28;20432;-80
2021/01/03 01:14:48;;;;;;;53.57;28.60;;;5.80;92.60;;;;;;5098458;28;20475;-79
2021/01/03 01:17:15;;;;;;;58.27;29.67;;;5.80;92.60;;;;;;5098696;28;20436;-79
2021/01/03 01:19:41;;;;;;;50.00;27.70;;;5.80;92.60;;;;;;5097701;28;20455;-80
2021/01/03 01:22:08;;;;;;;52.10;27.83;;;5.80;92.50;;;;;;5097765;28;20451;-79
2021/01/03 01:24:34;;;;;;;50.00;27.17;;;5.70;92.50;;;;;;5097669;28;20946;-79
2021/01/03 01:27:01;;;;;;;50.97;26.97;;;5.70;92.50;;;;;;5097801;28;20492;-79
2021/01/03 01:29:27;;;;;;;45.63;25.87;;;5.80;92.60;;;;;;5098071;28;20470;-79
2021/01/03 01:31:53;;;;;;;50.30;27.50;;;5.80;92.60;;;;;;5098423;28;20436;-79
2021/01/03 01:34:19;;;;;;;50.70;27.60;;;5.80;92.60;;;;;;5098205;28;20483;-79
2021/01/03 01:36:46;;;;;;;50.33;29.70;;;5.80;92.60;;;;;;5098039;28;20945;-79
2021/01/03 01:39:12;;;;;;;48.77;27.07;;;5.80;92.60;;;;;;5097071;28;20455;-79
2021/01/03 01:41:38;;;;;;;50.13;27.43;;;5.80;92.60;;;;;;5097620;28;20475;-78
2021/01/03 01:44:05;;;;;;;43.70;26.90;;;5.80;92.60;;;;;;5097455;28;20436;-79
2021/01/03 01:46:35;;;;;;;48.30;27.50;;;5.80;92.50;;;;;;5097806;28;20497;-79
2021/01/03 01:49:06;;;;;;;45.93;26.70;;;5.80;92.40;;;;;;5097940;28;20464;-79
2021/01/03 01:51:36;;;;;;;52.37;27.80;;;5.70;92.40;;;;;;5097099;28;20432;-79
2021/01/03 01:54:06;;;;;;;54.47;27.73;;;5.70;92.40;;;;;;5096936;28;20964;-79
2021/01/03 01:56:39;;;;;;;43.40;26.73;;;5.70;92.50;;;;;;5097504;28;20462;-79
2021/01/03 01:59:14;;;;;;;51.93;26.80;;;5.70;92.50;;;;;;5097439;28;20468;-79
2021/01/03 02:01:46;;;;;;;51.50;27.70;;;5.70;92.60;;;;;;5097080;28;20435;-79
2021/01/03 02:04:20;;;;;;;45.37;26.30;;;5.70;92.60;;;;;;5097462;28;20881;-79
2021/01/03 02:06:56;;;;;;;49.40;28.50;;;5.70;92.60;;;;;;5097442;28;20419;-79
2021/01/03 02:09:29;;;;;;;50.23;26.90;;;5.70;92.90;;;;;;5097243;28;20525;-79
2021/01/03 02:12:08;;;;;;;52.53;29.70;;;5.70;92.60;;;;;;5097218;28;20432;-79
2021/01/03 02:14:35;;;;;;;47.70;26.90;;;5.80;92.60;;;;;;5096792;28;20464;-79
2021/01/03 02:17:02;;;;;;;50.27;28.03;;;5.80;92.60;;;;;;5096632;28;21011;-79
2021/01/03 02:19:33;;;;;;;46.63;27.20;;;5.70;92.60;;;;;;5097251;28;20973;-79
2021/01/03 02:22:05;;;;;;;48.97;28.33;;;5.80;92.70;;;;;;5096630;28;20428;-79
2021/01/03 02:24:39;;;;;;;48.57;27.17;;;5.80;92.70;;;;;;5096850;28;20443;-79
2021/01/03 02:27:11;;;;;;;47.50;26.87;;;5.80;92.60;;;;;;5096856;28;20428;-79
2021/01/03 02:29:38;;;;;;;47.47;26.87;;;5.80;92.60;;;;;;5096709;28;20435;-79
2021/01/03 02:32:06;;;;;;;50.47;27.13;;;5.80;92.60;;;;;;5096067;28;20968;-79
2021/01/03 02:34:36;;;;;;;52.43;28.87;;;5.70;92.50;;;;;;5096674;28;20563;-79
2021/01/03 02:37:07;;;;;;;46.83;27.57;;;5.70;92.50;;;;;;5096131;28;20440;-79
2021/01/03 02:39:42;;;;;;;51.43;28.10;;;5.80;92.60;;;;;;5095143;28;20991;-79
2021/01/03 02:42:17;;;;;;;48.27;27.67;;;5.80;92.60;;;;;;5096656;28;20423;-79
2021/01/03 02:44:43;;;;;;;48.13;27.97;;;5.70;92.60;;;;;;5097030;28;20435;-79
2021/01/03 02:47:10;;;;;;;53.20;28.97;;;5.70;92.60;;;;;;5096703;28;20447;-79
2021/01/03 02:49:36;;;;;;;52.67;28.77;;;5.80;92.70;;;;;;5096953;28;20468;-79
2021/01/03 02:52:07;;;;;;;45.00;26.03;;;5.80;92.60;;;;;;5096491;28;20901;-79
2021/01/03 02:54:33;;;;;;;50.13;27.60;;;5.70;92.50;;;;;;5097214;28;20459;-79
2021/01/03 02:57:00;;;;;;;52.07;27.33;;;5.70;92.50;;;;;;5097193;28;20447;-79
2021/01/03 02:59:27;;;;;;;47.73;27.37;;;5.70;92.60;;;;;;5097181;28;20503;-79
2021/01/03 03:01:53;;;;;;;47.47;27.93;;;5.70;92.60;;;;;;5096463;28;20470;-79
2021/01/03 03:04:20;;;;;;;53.13;28.90;;;5.70;92.60;;;;;;5097172;28;20452;-79
2021/01/03 03:06:46;;;;;;;44.07;27.23;;;5.70;92.60;;;;;;5097243;28;20444;-79
2021/01/03 03:09:12;;;;;;;49.83;27.93;;;5.70;92.60;;;;;;5096960;28;20463;-79
2021/01/03 03:11:38;;;;;;;53.23;28.67;;;5.70;92.70;;;;;;5096573;28;20443;-79
2021/01/03 03:14:05;;;;;;;52.13;27.97;;;5.70;92.70;;;;;;5096842;28;20428;-79
2021/01/03 03:16:32;;;;;;;48.40;28.30;;;5.70;92.70;;;;;;5096204;28;20444;-79
2021/01/03 03:18:58;;;;;;;50.60;29.93;;;5.70;92.70;;;;;;5096308;28;20466;-79
2021/01/03 03:21:24;;;;;;;43.43;29.03;;;5.70;92.70;;;;;;5096413;28;20447;-79
2021/01/03 03:23:50;;;;;;;57.37;30.20;;;5.70;92.70;;;;;;5096706;28;20444;-79
2021/01/03 03:26:16;;;;;;;47.97;28.47;;;5.70;92.70;;;;;;5096681;28;20844;-79
2021/01/03 03:28:43;;;;;;;51.10;28.70;;;5.70;92.70;;;;;;5095729;28;20471;-79
2021/01/03 03:31:09;;;;;;;45.70;26.90;;;5.70;92.70;;;;;;5096230;28;20477;-79
2021/01/03 03:33:36;;;;;;;45.53;27.70;;;5.70;92.70;;;;;;5096261;28;20474;-79
2021/01/03 03:36:02;;;;;;;47.57;28.43;;;5.70;92.60;;;;;;5096386;28;20890;-79
2021/01/03 03:38:28;;;;;;;51.20;30.20;;;5.70;92.60;;;;;;5095956;28;21050;-79
2021/01/03 03:40:55;;;;;;;50.40;30.10;;;5.70;92.60;;;;;;5096025;28;20455;-79
2021/01/03 03:43:21;;;;;;;50.50;28.27;;;5.70;92.50;;;;;;5096408;28;20439;-79
2021/01/03 03:45:47;;;;;;;49.13;27.37;;;5.70;92.60;;;;;;5096143;28;20443;-79
2021/01/03 03:48:13;;;;;;;51.97;27.40;;;5.70;92.50;;;;;;5095705;28;20464;-79
2021/01/03 03:50:40;;;;;;;58.50;30.93;;;5.70;92.50;;;;;;5098448;28;20443;-79
2021/01/03 03:53:06;;;;;;;49.77;29.47;;;5.70;92.50;;;;;;5100810;28;20439;-79
2021/01/03 03:55:33;;;;;;;54.13;29.73;;;5.70;92.50;;;;;;5099543;28;20472;-79
2021/01/03 03:57:59;;;;;;;48.83;27.47;;;5.70;92.50;;;;;;5099928;28;20467;-79
2021/01/03 04:00:25;;;;;;;45.47;27.10;;;5.70;92.40;;;;;;5099859;28;20496;-78
2021/01/03 04:02:52;;;;;;;46.07;29.03;;;5.70;92.40;;;;;;5099579;28;20550;-78
2021/01/03 04:05:21;;;;;;;46.97;29.20;;;5.70;92.40;;;;;;5099103;28;20459;-79
2021/01/03 04:07:49;;;;;;;54.53;29.63;;;5.70;92.40;;;;;;5098852;28;20460;-79
2021/01/03 04:10:16;;;;;;;50.40;29.10;;;5.70;92.40;;;;;;5099032;28;20455;-79
2021/01/03 04:12:43;;;;;;;47.60;27.40;;;5.70;92.40;;;;;;5099202;28;20439;-79
2021/01/03 04:15:12;;;;;;;49.60;31.73;;;5.70;92.40;;;;;;5099653;28;20483;-80
2021/01/03 04:17:38;;;;;;;48.47;28.90;;;5.70;92.40;;;;;;5098804;28;20460;-79
2021/01/03 04:20:07;;;;;;;49.93;28.27;;;5.70;92.30;;;;;;5099122;28;20443;-79
2021/01/03 04:22:34;;;;;;;46.93;29.10;;;5.70;92.40;;;;;;5098619;28;20455;-79
2021/01/03 04:25:01;;;;;;;55.63;29.67;;;5.70;92.30;;;;;;5098827;28;20447;-79
2021/01/03 04:27:27;;;;;;;49.63;27.87;;;5.70;92.30;;;;;;5098821;28;20451;-79
2021/01/03 04:29:53;;;;;;;50.57;30.40;;;5.70;92.30;;;;;;5098430;28;20447;-78
2021/01/03 04:32:20;;;;;;;47.90;27.90;;;5.70;92.20;;;;;;5098211;28;20845;-79
2021/01/03 04:34:46;;;;;;;44.07;28.50;;;5.70;92.20;;;;;;5098406;28;20476;-79
2021/01/03 04:37:18;;;;;;;45.80;27.20;;;5.70;92.20;;;;;;5098273;28;20448;-78
2021/01/03 04:39:44;;;;;;;46.23;30.70;;;5.70;92.20;;;;;;5098684;28;20439;-79
2021/01/03 04:42:17;;;;;;;45.20;28.10;;;5.70;92.20;;;;;;5098316;28;20447;-78
2021/01/03 04:44:45;;;;;;;49.70;29.83;;;5.70;92.10;;;;;;5098415;28;20420;-78
2021/01/03 04:47:23;;;;;;;44.40;27.90;;;5.70;92.10;;;;;;5098352;28;20459;-78
2021/01/03 04:49:57;;;;;;;52.33;29.83;;;5.70;92.00;;;;;;5098574;28;20428;-79
2021/01/03 04:52:39;;;;;;;49.53;30.83;;;5.70;92.00;;;;;;5098501;28;20489;-79
2021/01/03 04:55:15;;;;;;;41.00;25.27;;;5.70;92.00;;;;;;5098223;28;20471;-78
2021/01/03 04:57:51;;;;;;;41.17;24.33;;;5.60;91.90;;;;;;5098187;28;20463;-79
2021/01/03 05:00:18;;;;;;;42.87;26.67;;;5.60;91.90;;;;;;5097982;28;20435;-79
2021/01/03 05:03:13;;;;;;;47.43;27.07;;;5.60;91.90;;;;;;5097355;28;20451;-79
2021/01/03 05:05:46;;;;;;;52.83;28.17;;;5.60;91.80;;;;;;5098454;28;20428;-79
2021/01/03 05:08:23;;;;;;;45.63;25.00;;;5.60;91.70;;;;;;5098466;28;20460;-79
2021/01/03 05:10:50;;;;;;;40.80;25.50;;;5.60;91.70;;;;;;5098805;28;20435;-79
2021/01/03 05:13:40;;;;;;;38.90;24.07;;;5.60;91.70;;;;;;5098173;28;20440;-80
2021/01/03 05:16:09;;;;;;;41.43;26.00;;;5.60;91.60;;;;;;5097924;28;20521;-79
2021/01/03 05:18:35;;;;;;;37.93;24.83;;;5.60;91.60;;;;;;5098017;28;20464;-79
2021/01/03 05:21:06;;;;;;;42.53;24.60;;;5.60;91.50;;;;;;5097771;28;20469;-79
2021/01/03 05:23:34;;;;;;;36.00;22.73;;;5.60;91.80;;;;;;5097971;28;20472;-79
2021/01/03 05:26:03;;;;;;;37.07;22.90;;;5.60;91.40;;;;;;5097301;28;20437;-79
2021/01/03 05:28:32;;;;;;;42.20;25.03;;;5.60;91.30;;;;;;5097511;28;20973;-79
2021/01/03 05:31:12;;;;;;;34.33;22.23;;;5.60;91.30;;;;;;5097515;28;20450;-79
2021/01/03 05:33:50;;;;;;;35.10;23.17;;;5.60;91.20;;;;;;5097909;28;20431;-79
2021/01/03 05:36:32;;;;;;;34.37;22.20;;;5.60;91.10;;;;;;5096803;28;20466;-79
2021/01/03 05:39:03;;;;;;;38.13;23.13;;;5.60;91.00;;;;;;5097050;28;20973;-79
2021/01/03 05:41:53;;;;;;;36.00;21.43;;;5.60;90.90;;;;;;5097332;28;20440;-79
2021/01/03 05:44:24;;;;;;;33.73;20.83;;;5.60;90.80;;;;;;5097467;28;20479;-78
2021/01/03 05:47:00;;;;;;;32.30;22.13;;;5.60;90.70;;;;;;5097417;28;20429;-79
2021/01/03 05:49:28;;;;;;;35.40;21.67;;;5.60;90.70;;;;;;5097410;28;20470;-78
2021/01/03 05:52:05;;;;;;;32.53;21.03;;;5.60;90.60;;;;;;5097091;28;20901;-79
2021/01/03 05:54:34;;;;;;;31.67;21.50;;;5.60;90.50;;;;;;5097469;28;20523;-79
2021/01/03 05:57:05;;;;;;;31.20;19.77;;;5.60;90.50;;;;;;5097329;28;20455;-79
2021/01/03 05:59:35;;;;;;;31.70;20.53;;;5.60;90.30;;;;;;5096646;28;20464;-79
2021/01/03 06:02:09;;;;;;;32.37;21.10;;;5.60;90.30;;;;;;5097148;28;20431;-78
2021/01/03 06:04:36;;;;;;;29.43;18.47;;;5.60;90.30;;;;;;5096799;28;20549;-79
2021/01/03 06:07:19;;;;;;;28.47;19.17;;;5.60;90.30;;;;;;5097150;28;20968;-79
2021/01/03 06:09:45;;;;;;;31.37;19.20;;;5.60;90.50;;;;;;5096318;28;20918;-79
2021/01/03 06:12:17;;;;;;;26.83;18.10;;;5.60;90.20;;;;;;5096583;28;20535;-80
2021/01/03 06:14:45;;;;;;;31.23;20.23;;;5.60;90.20;;;;;;5097382;28;20463;-79
2021/01/03 06:17:33;;;;;;;31.67;19.80;;;5.60;90.10;;;;;;5096875;28;20444;-79
2021/01/03 06:20:08;;;;;;;30.00;19.60;;;5.60;90.00;;;;;;5097022;28;20444;-79
2021/01/03 06:22:41;;;;;;;28.40;18.90;;;5.60;90.00;;;;;;5096394;28;20893;-79
2021/01/03 06:25:27;;;;;;;30.60;19.90;;;5.60;89.90;;;;;;5096427;28;20428;-79
2021/01/03 06:28:01;;;;;;;30.30;18.60;;;5.60;89.90;;;;;;5096389;28;20529;-79
2021/01/03 06:30:27;;;;;;;27.00;18.97;;;5.60;90.00;;;;;;5096160;28;20432;-79
2021/01/03 06:33:37;;;;;;;34.70;19.57;;;5.60;90.00;;;;;;5095591;28;20991;-79
2021/01/03 06:36:07;;;;;;;28.23;19.80;;;5.50;90.00;;;;;;5095201;28;20479;-79
2021/01/03 06:38:51;;;;;;;32.87;20.77;;;5.50;90.10;;;;;;5095706;28;20846;-79
2021/01/03 06:41:35;;;;;;;27.63;18.73;;;5.50;89.80;;;;;;5096130;28;20425;-79
2021/01/03 06:44:24;;;;;;;24.20;17.63;;;5.50;89.70;;;;;;5095573;28;20836;-79
2021/01/03 06:47:09;;;;;;;29.80;20.03;;;5.50;90.00;;;;;;5095375;28;20432;-79
2021/01/03 06:50:01;;;;;;;30.67;19.57;;;5.50;90.10;;;;;;5094876;28;20466;-79
2021/01/03 06:52:59;;;;;;;35.17;21.30;;;5.50;90.40;;;;;;5094907;28;20932;-79
2021/01/03 06:55:42;;;;;;;29.87;19.07;;;5.50;90.00;;;;;;5095193;28;20474;-79
2021/01/03 06:58:53;;;;;;;27.63;17.87;;;5.50;90.00;;;;;;5095733;28;20468;-79
2021/01/03 07:01:21;;;;;;;27.50;19.43;;;5.50;90.00;;;;;;5059153;28;20444;-79
2021/01/03 07:03:50;;;;;;;26.90;18.00;;;5.50;90.00;;;;;;5095376;28;20825;-79
2021/01/03 07:06:18;;;;;;;32.13;19.00;;;5.50;90.00;;;;;;5096179;28;20436;-79
2021/01/03 07:08:46;;;;;;;31.33;19.27;;;5.50;90.00;;;;;;5095274;28;20467;-79
2021/01/03 07:11:38;;;;;;;28.93;19.20;;;5.50;90.00;;;;;;5095623;28;20443;-79
2021/01/03 07:14:06;;;;;;;30.63;19.40;;;5.50;90.00;;;;;;5095731;28;20790;-79
2021/01/03 07:16:54;;;;;;;32.40;20.17;;;5.50;90.00;;;;;;5096735;28;20484;-79
2021/01/03 07:19:32;;;;;;;31.57;19.97;;;5.50;89.90;;;;;;5095336;28;20478;-79
2021/01/03 07:22:05;;;;;;;27.70;19.47;;;5.50;90.00;;;;;;5094380;28;20416;-79
2021/01/03 07:24:36;;;;;;;29.83;19.20;;;5.50;89.90;;;;;;5095015;28;20430;-79
2021/01/03 07:27:28;;;;;;;30.57;19.40;;;5.50;90.00;;;;;;5098299;28;20435;-79
2021/01/03 07:30:31;;;;;;;29.50;18.90;;;5.50;90.00;;;;;;5095365;28;20543;-79
2021/01/03 07:33:29;;;;;;;27.80;18.97;;;5.50;89.70;;;;;;5094738;28;20447;-79
2021/01/03 07:35:56;;;;;;;26.10;17.90;;;5.50;89.60;;;;;;5061498;28;20856;-79
2021/01/03 07:38:31;;;;;;;28.23;19.10;;;5.50;89.50;;;;;;5098083;28;20616;-79
2021/01/03 07:41:04;;;;;;;28.97;19.43;;;5.50;89.60;;;;;;5097598;28;20982;-79
2021/01/03 07:43:58;;;;;;;26.87;19.00;;;5.50;89.60;;;;;;5098391;28;20431;-79
2021/01/03 07:46:52;;;;;;;28.70;18.47;;;5.50;89.70;;;;;;5098301;28;20444;-79
2021/01/03 07:49:42;;;;;;;31.30;19.30;;;5.50;89.60;;;;;;5097656;28;20973;-79
2021/01/03 07:52:41;;;;;;;30.70;21.13;;;5.50;89.70;;;;;;5097683;28;20435;-79
2021/01/03 07:55:29;;;;;;;30.90;18.67;;;5.50;89.70;;;;;;5093536;28;20484;-79
2021/01/03 07:57:58;;;;;;;27.50;17.93;;;5.50;89.10;;;;;;5095272;28;20501;-78
2021/01/03 08:00:26;;;;;;;28.33;19.10;;;5.60;89.10;;;;;;5097753;28;20454;-79
2021/01/03 08:02:57;;;;;;;31.53;19.23;;;5.50;89.10;;;;;;5098009;28;20485;-79
2021/01/03 08:05:24;;;;;;;29.00;18.20;;;5.50;89.20;;;;;;5097191;28;20467;-79
2021/01/03 08:07:51;;;;;;;26.43;18.03;;;5.50;89.30;;;;;;5097658;28;20463;-79
2021/01/03 08:10:18;;;;;;;24.30;18.03;;;5.50;89.30;;;;;;5097523;28;20855;-79
2021/01/03 08:12:47;;;;;;;27.67;18.30;;;5.50;90.10;;;;;;5097011;28;20821;-79
2021/01/03 08:15:24;;;;;;;26.87;17.43;;;5.60;89.30;;;;;;5096959;28;20482;-79
2021/01/03 08:17:52;;;;;;;25.93;17.00;;;5.60;88.90;;;;;;5096995;28;20495;-79
2021/01/03 08:20:23;;;;;;;24.60;16.73;;;5.60;88.90;;;;;;5097209;28;20447;-79
2021/01/03 08:22:49;;;;;;;23.20;16.80;;;5.60;88.40;;;;;;5097640;28;20432;-79
2021/01/03 08:25:20;;;;;;;27.47;16.27;;;5.60;88.60;;;;;;5096919;28;20440;-79
2021/01/03 08:27:52;;;;;;;23.00;15.63;;;5.60;88.50;;;;;;5097146;28;20477;-79
2021/01/03 08:30:24;;;;;;;21.90;14.67;;;5.60;88.60;;;;;;5097981;28;20428;-80
2021/01/03 08:32:51;;;;;;;21.27;14.80;;;5.60;88.40;;;;;;5101347;28;20428;-80
2021/01/03 08:35:28;;;;;;;21.47;14.87;;;5.60;88.50;;;;;;5100093;28;20507;-79
2021/01/03 08:37:55;;;;;;;19.90;14.33;;;5.60;88.30;;;;;;5097420;28;20475;-79
2021/01/03 08:40:27;;;;;;;23.80;14.87;;;5.60;88.40;;;;;;5097102;28;20459;-79
2021/01/03 08:43:01;;;;;;;20.70;14.20;;;5.60;88.50;;;;;;5097035;28;20432;-79
2021/01/03 08:45:32;;;;;;;21.90;14.00;;;5.60;88.20;;;;;;5096674;28;20424;-77
2021/01/03 08:48:05;;;;;;;16.63;12.97;;;5.60;87.70;;;;;;5096499;28;20471;-79
2021/01/03 08:50:34;;;;;;;18.13;13.33;;;5.60;87.80;;;;;;5096842;28;20440;-79
2021/01/03 08:53:03;;;;;;;18.13;13.13;;;5.60;87.60;;;;;;5096785;28;20471;-79
2021/01/03 08:55:33;;;;;;;18.77;13.80;;;5.60;87.40;;;;;;5096630;28;20479;-79
2021/01/03 08:58:01;;;;;;;18.10;13.13;;;5.60;87.10;;;;;;5097299;28;20477;-79
2021/01/03 09:00:37;;;;;;;16.03;11.83;;;5.60;86.80;;;;;;5096282;28;20497;-79
2021/01/03 09:03:06;;;;;;;16.43;12.50;;;5.60;86.90;;;;;;5096239;28;20428;-79
2021/01/03 09:05:36;;;;;;;16.50;12.53;;;5.60;86.70;;;;;;5096190;28;20968;-79
2021/01/03 09:08:05;;;;;;;15.30;12.73;;;5.60;86.30;;;;;;5096752;28;20463;-79
2021/01/03 09:10:37;;;;;;;18.90;12.30;;;5.60;86.30;;;;;;5097285;28;20787;-78
2021/01/03 09:13:23;;;;;;;15.37;12.03;;;5.60;86.50;;;;;;5096618;28;20437;-77
2021/01/03 09:16:00;;;;;;;16.10;11.77;;;5.60;86.80;;;;;;5097361;28;20498;-79
2021/01/03 09:18:32;;;;;;;15.77;12.03;;;5.60;86.70;;;;;;5103502;28;20464;-79
2021/01/03 09:21:04;;;;;;;17.23;13.07;;;5.60;86.60;;;;;;5103973;28;20797;-79
2021/01/03 09:23:33;;;;;;;19.30;12.63;;;5.60;86.30;;;;;;5101595;28;20436;-79
2021/01/03 09:26:02;;;;;;;15.37;11.30;;;5.70;86.30;;;;;;5107711;28;20435;-80
2021/01/03 09:28:31;;;;;;;16.30;11.57;;;5.70;86.40;;;;;;5104043;28;20502;-80
2021/01/03 09:31:15;;;;;;;16.30;12.03;;;5.70;86.00;;;;;;5103964;28;20836;-80
2021/01/03 09:33:47;;;;;;;14.33;11.70;;;5.70;85.80;;;;;;5103417;28;20421;-79
2021/01/03 09:36:41;;;;;;;15.27;10.53;;;5.70;85.30;;;;;;5102727;28;20468;-80
2021/01/03 09:39:32;;;;;;;13.60;10.57;;;5.70;85.30;;;;;;5101797;28;20560;-80
2021/01/03 09:42:39;;;;;;;13.30;9.80;;;5.70;85.50;;;;;;5102217;28;20428;-79
2021/01/03 09:45:29;;;;;;;12.50;9.80;;;5.70;84.90;;;;;;5101346;28;20439;-80
2021/01/03 09:47:55;;;;;;;12.30;10.10;;;5.70;85.00;;;;;;5101146;28;20470;-80
2021/01/03 09:50:27;;;;;;;15.50;11.00;;;5.70;85.30;;;;;;5101632;28;20458;-80
2021/01/03 09:53:06;;;;;;;14.93;9.83;;;5.70;85.50;;;;;;5101854;28;20428;-79
2021/01/03 09:55:39;;;;;;;15.40;11.17;;;5.80;85.30;;;;;;5101715;28;20459;-80
2021/01/03 09:58:08;;;;;;;14.50;10.60;;;5.80;85.40;;;;;;5098965;28;20460;-82
2021/01/03 10:00:53;;;;;;;11.00;9.47;;;5.80;84.70;;;;;;5098103;28;20440;-82
2021/01/03 10:03:23;;;;;;;11.30;10.07;;;5.80;84.40;;;;;;5098108;28;20431;-82
2021/01/03 10:05:50;;;;;;;15.53;11.33;;;5.80;84.10;;;;;;5097922;28;20424;-83
2021/01/03 10:08:20;;;;;;;13.20;10.27;;;5.80;84.50;;;;;;5097883;28;20875;-83
2021/01/03 10:10:49;;;;;;;14.20;9.43;;;5.80;84.00;;;;;;5097902;28;20481;-82
2021/01/03 10:13:18;;;;;;;12.40;10.30;;;5.80;84.00;;;;;;5097501;28;20435;-81
2021/01/03 10:15:49;;;;;;;11.93;9.20;;;5.90;84.00;;;;;;5097644;28;20845;-82
2021/01/03 10:18:28;;;;;;;12.07;9.90;;;5.90;84.00;;;;;;5097158;28;20464;-82
2021/01/03 10:20:55;;;;;;;10.80;9.60;;;5.90;83.50;;;;;;5097907;28;20412;-82
2021/01/03 10:23:33;;;;;;;11.10;9.93;;;5.90;83.50;;;;;;5096959;28;20963;-82
2021/01/03 10:25:59;;;;;;;10.93;9.13;;;6.00;83.20;;;;;;5097037;28;20424;-81
2021/01/03 10:28:26;;;;;;;11.07;9.60;;;6.00;83.00;;;;;;5096897;28;20464;-82
2021/01/03 10:30:53;;;;;;;13.50;9.53;;;6.00;82.00;;;;;;5097141;28;20447;-82
2021/01/03 10:33:19;;;;;;;11.90;10.57;;;6.00;82.10;;;;;;5096896;28;20481;-82
2021/01/03 10:35:45;;;;;;;11.37;9.20;;;6.00;82.40;;;;;;5096363;28;20503;-82
2021/01/03 10:38:12;;;;;;;8.90;7.87;;;6.00;82.30;;;;;;5095918;28;20512;-83
2021/01/03 10:40:38;;;;;;;10.17;8.30;;;6.00;81.30;;;;;;5097784;28;20498;-83
2021/01/03 10:43:05;;;;;;;9.73;8.53;;;6.00;82.10;;;;;;5097150;28;20409;-82
2021/01/03 10:45:32;;;;;;;9.43;8.40;;;6.00;82.00;;;;;;5096388;28;20422;-81
2021/01/03 10:47:58;;;;;;;9.10;7.53;;;6.10;81.20;;;;;;5097097;28;20475;-82
2021/01/03 10:50:25;;;;;;;8.60;7.70;;;6.00;80.80;;;;;;5096739;28;20423;-82
2021/01/03 10:52:51;;;;;;;7.90;7.07;;;6.10;80.90;;;;;;5096240;28;20432;-81
2021/01/03 10:55:20;;;;;;;9.03;6.87;;;6.10;80.00;;;;;;5096195;28;20487;-81
2021/01/03 10:57:46;;;;;;;8.50;7.60;;;6.10;80.50;;;;;;5096016;28;20464;-82
2021/01/03 11:00:15;;;;;;;8.40;6.93;;;6.10;80.40;;;;;;5098361;28;20454;-81
2021/01/03 11:02:43;;;;;;;8.17;6.87;;;6.10;80.80;;;;;;5100532;28;20435;-82
2021/01/03 11:05:10;;;;;;;7.00;6.30;;;6.10;80.70;;;;;;5100015;28;20467;-82
2021/01/03 11:07:36;;;;;;;7.50;6.80;;;6.20;80.50;;;;;;5100455;28;20474;-82
2021/01/03 11:10:04;;;;;;;8.80;6.93;;;6.10;80.60;;;;;;5100220;28;20497;-82
2021/01/03 11:12:31;;;;;;;7.37;6.37;;;6.20;80.50;;;;;;5100307;28;20483;-82
2021/01/03 11:14:57;;;;;;;7.50;6.20;;;6.20;79.90;;;;;;5100295;28;20479;-82
2021/01/03 11:17:23;;;;;;;7.87;7.07;;;6.20;79.20;;;;;;5099813;28;20412;-83
2021/01/03 11:19:50;;;;;;;7.13;6.43;;;6.20;78.80;;;;;;5099911;28;20451;-83
2021/01/03 11:22:17;;;;;;;7.77;6.13;;;6.30;79.20;;;;;;5099627;28;20436;-82
2021/01/03 11:24:44;;;;;;;7.03;6.33;;;6.40;78.90;;;;;;5100107;28;20443;-83
2021/01/03 11:27:16;;;;;;;6.83;5.93;;;6.30;78.80;;;;;;5099964;28;20454;-82
2021/01/03 11:29:42;;;;;;;7.30;6.50;;;6.30;78.50;;;;;;5099625;28;20463;-82
2021/01/03 11:32:13;;;;;;;7.07;6.37;;;6.40;78.20;;;;;;5100355;28;20455;-82
2021/01/03 11:34:39;;;;;;;8.10;6.33;;;6.40;77.80;;;;;;5099956;28;20437;-82
2021/01/03 11:37:09;;;;;;;6.90;5.87;;;6.30;77.70;;;;;;5100233;28;20443;-81
2021/01/03 11:39:36;;;;;;;6.97;5.90;;;6.40;78.20;;;;;;5099634;28;20493;-81
2021/01/03 11:42:05;;;;;;;6.30;5.70;;;6.40;79.00;;;;;;5099506;28;20439;-82
2021/01/03 11:44:31;;;;;;;6.23;5.63;;;6.40;78.80;;;;;;5098928;28;20463;-82
2021/01/03 11:46:59;;;;;;;7.43;6.40;;;6.40;78.00;;;;;;5099169;28;20930;-82
2021/01/03 11:49:25;;;;;;;7.07;6.33;;;6.40;77.50;;;;;;5099324;28;20466;-83
2021/01/03 11:51:52;;;;;;;8.07;6.53;;;6.50;78.00;;;;;;5099106;28;20428;-82
2021/01/03 11:54:20;;;;;;;8.87;5.97;;;6.50;78.30;;;;;;5099494;28;20455;-79
2021/01/03 11:56:46;;;;;;;6.90;5.73;;;6.60;78.30;;;;;;5099257;28;20471;-83
2021/01/03 11:59:14;;;;;;;6.93;5.60;;;6.50;77.90;;;;;;5098380;28;20463;-82
2021/01/03 12:01:40;;;;;;;7.23;6.13;;;6.50;77.00;;;;;;5098756;28;20436;-83
2021/01/03 12:04:07;;;;;;;11.83;6.37;;;6.50;77.60;;;;;;5098583;28;20460;-81
2021/01/03 12:06:33;;;;;;;7.63;6.47;;;6.50;77.60;;;;;;5098670;28;20444;-81
2021/01/03 12:08:59;;;;;;;6.70;6.00;;;6.50;77.90;;;;;;5098627;28;20882;-82
2021/01/03 12:11:26;;;;;;;6.90;6.20;;;6.60;78.50;;;;;;5098059;28;20500;-82
2021/01/03 12:13:55;;;;;;;6.67;5.80;;;6.60;77.90;;;;;;5098391;28;20864;-83
2021/01/03 12:16:23;;;;;;;6.60;5.60;;;6.60;77.30;;;;;;5098234;28;20464;-80
2021/01/03 12:18:50;;;;;;;7.10;6.03;;;6.50;77.30;;;;;;5098237;28;20832;-82
2021/01/03 12:21:21;;;;;;;7.20;6.50;;;6.50;78.10;;;;;;5097312;28;20452;-80
2021/01/03 12:23:47;;;;;;;6.73;6.00;;;6.50;78.30;;;;;;5097151;28;20472;-80
2021/01/03 12:26:14;;;;;;;9.03;6.07;;;6.50;78.30;;;;;;5096894;28;20444;-80
2021/01/03 12:28:41;;;;;;;8.40;6.60;;;6.50;77.90;;;;;;5096424;28;20513;-79
2021/01/03 12:31:07;;;;;;;6.17;5.57;;;6.40;77.40;;;;;;5096718;28;20451;-80
2021/01/03 12:33:33;;;;;;;8.47;6.10;;;6.50;78.10;;;;;;5096561;28;20474;-79
2021/01/03 12:35:59;;;;;;;6.13;5.57;;;6.40;78.40;;;;;;5096615;28;20460;-79
2021/01/03 12:38:26;;;;;;;7.17;5.07;;;6.50;78.60;;;;;;5096868;28;20459;-80
2021/01/03 12:40:52;;;;;;;6.60;5.83;;;6.40;77.90;;;;;;5096756;28;20444;-80
2021/01/03 12:43:18;;;;;;;6.43;5.80;;;6.40;78.20;;;;;;5097181;28;20435;-82
2021/01/03 12:45:45;;;;;;;5.60;5.03;;;6.40;78.50;;;;;;5096911;28;20441;-82
2021/01/03 12:48:11;;;;;;;6.87;5.73;;;6.40;78.40;;;;;;5096993;28;20517;-82
2021/01/03 12:50:37;;;;;;;5.50;4.67;;;6.40;78.10;;;;;;5096448;28;20432;-82
2021/01/03 12:53:04;;;;;;;5.70;5.17;;;6.40;77.50;;;;;;5096491;28;20443;-81
2021/01/03 12:55:30;;;;;;;7.87;5.67;;;6.40;77.70;;;;;;5096053;28;20498;-82
2021/01/03 12:57:56;;;;;;;6.03;5.43;;;6.40;78.80;;;;;;5096250;28;20459;-82
2021/01/03 13:00:23;;;;;;;7.67;6.23;;;6.30;78.00;;;;;;5096643;28;20525;-81